This is the latest recevied weather packets stored in our database for station/object W1ERB-13. If no packets are shown the sender has not sent any weather packets the latest 10 day(s).
| Time | Temp. | Humidity | Pressure | Rain* | Wind** | Luminosity | Snow |
|---|---|---|---|---|---|---|---|
| 1777769797 | 8.89° C | 71% | 1010.7 hPa | 0 mm | - | 0 W/m² | - |
| 1777769494 | 8.33° C | 74% | 1010.6 hPa | 0 mm | - | 0 W/m² | - |
| 1777769190 | 8.89° C | 76% | 1010.5 hPa | 0 mm | - | 0 W/m² | - |
| 1777768889 | 8.89° C | 76% | 1010.4 hPa | 0 mm | - | 0 W/m² | - |
| 1777768585 | 8.89° C | 74% | 1010.5 hPa | 0 mm | - | 0 W/m² | - |
| 1777768282 | 9.44° C | 74% | 1010.4 hPa | 0 mm | - | 0 W/m² | - |
| 1777767979 | 9.44° C | 74% | 1010.3 hPa | 0 mm | - | 0 W/m² | - |
| 1777767676 | 10° C | 71% | 1010.2 hPa | 0 mm | - | 0 W/m² | - |
| 1777767372 | 10° C | 70% | 1010.2 hPa | 0 mm | - | 0 W/m² | - |
| 1777767069 | 10.56° C | 69% | 1010.2 hPa | 0 mm | - | 0 W/m² | - |
| 1777766767 | 10.56° C | 69% | 1010.1 hPa | 0 mm | - | 0 W/m² | - |
| 1777766464 | 10.56° C | 69% | 1010 hPa | 0 mm | - | 0 W/m² | - |
| 1777766160 | 11.11° C | 67% | 1010 hPa | 0 mm | - | 0 W/m² | - |
| 1777765858 | 11.11° C | 65% | 1009.8 hPa | 0 mm | - | 1 W/m² | - |
| 1777765554 | 11.67° C | 62% | 1009.8 hPa | 0 mm | - | 2 W/m² | - |
| 1777765252 | 11.67° C | 62% | 1010 hPa | 0 mm | - | 4 W/m² | - |
| 1777764952 | 11.67° C | 59% | 1010.1 hPa | 0 mm | - | 8 W/m² | - |
| 1777764649 | 12.22° C | 59% | 1009.9 hPa | 0 mm | - | 12 W/m² | - |
| 1777764345 | 12.22° C | 59% | 1010 hPa | 0 mm | - | 19 W/m² | - |
| 1777764043 | 12.22° C | 65% | 1009.8 hPa | 0 mm | - | 26 W/m² | - |
| 1777763740 | 12.22° C | 67% | 1009.8 hPa | 0 mm | - | 33 W/m² | - |
| 1777763438 | 12.22° C | 67% | 1010 hPa | 0 mm | - | 36 W/m² | - |
| 1777763136 | 12.22° C | 69% | 1009.7 hPa | 0 mm | - | 28 W/m² | - |
| 1777762834 | 12.78° C | 70% | 1009.7 hPa | 0 mm | - | 17 W/m² | - |
| 1777762529 | 12.78° C | 65% | 1010 hPa | 0 mm | - | 18 W/m² | - |
* Rain latest hour (hover to see other rain measurements)
** Current wind speed in m/s (hover to see current wind gust speed)